Pagrindinis puslapis
METAR-TAF:

METAR-TAF

Oro uostai :

Såtenäs, Švedija

platuma: 58-26N, ilguma: 012-42E, Aukštis: 54 m

Dabartinis oras

Ataskaita buvo paskelbta 1 valandą ir 7 minutes, ne 02:20 UTC
Vėjas 5 kt iš Pietų
Temperatūra 10°C
Drėgmė 100%
Slėgis 1012 hPa
Matomumas 10 km arba daugiau

METAR: ESIB 060220Z AUTO 19005KT 9999 FEW092/// 10/10 Q1012

Laikas: 05:27 (03:27 UTC)

Prognozė

Ataskaita buvo paskelbta 15 valandos ir 57 minutes, ne 11:30 UTC
Prognozė galioja nuo 05 metu 12 UTC su 05 metu 15 UTC
Vėjas 15 kt iš Pietų/Pietvakarių su gūsio iki 25 kt
Matomumas 10 km arba daugiau
Išsisklaidę debesys ne aukštis 4000 ft
Laikinai
nuo 05 metu 12 UTC su 05 metu 15 UTC
Matomumas: 4000 m
Su prošvaistėmis ne aukštis 1100 ft, Liūtiniai kamuoliniai debesys.
lietus

TAF: ESIB 051130Z 0512/0515 21015G25KT 9999 SCT040 TEMPO 0512/0515 4000 SHRA BKN011CB RMK MIL

Orai ataskaitas ir orų prognozės (METAR, TAF).

turimą stotys yra geltonos ir raudonos taškus žemėlapyje.

Perkelti pele per norėdami pamatyti stoties vardą.

Tada spustelėkite, norėdami matyti oro stebėjimo ir prognozės.

Norėdami pakeisti žemėlapį: spustelėkite ant žalios mygtukų su juodo kryžiaus žemyn,; žalią mygtuką su brūkšneliu, jei norite nutolinti; arba žalių rodyklių gretimoms žemėlapius.


METAR-TAF: